createdAt,value
2024-03-07T00:02:25.204Z,35.87
2024-03-07T00:05:29.074Z,36.42
2024-03-07T00:08:32.157Z,35.20
2024-03-07T00:11:35.703Z,37.58
2024-03-07T00:14:38.581Z,42.95
2024-03-07T00:17:42.609Z,41.83
2024-03-07T00:20:45.532Z,42.67
2024-03-07T00:23:50.132Z,40.17
2024-03-07T00:26:53.011Z,41.35
2024-03-07T00:29:56.348Z,36.50
2024-03-07T00:32:59.500Z,37.47
2024-03-07T00:36:02.898Z,33.83
2024-03-07T00:39:05.737Z,36.92
2024-03-07T00:42:09.685Z,34.30
2024-03-07T00:45:13.358Z,33.47
2024-03-07T00:48:16.476Z,31.05
2024-03-07T00:51:19.516Z,33.28
2024-03-07T00:54:22.655Z,35.38
2024-03-07T00:57:25.447Z,32.77
2024-03-07T01:00:29.703Z,35.17
2024-03-07T01:03:32.697Z,30.83
2024-03-07T01:06:42.164Z,34.13
2024-03-07T01:09:44.922Z,36.65
2024-03-07T01:12:47.916Z,36.60
2024-03-07T01:15:51.787Z,35.53
2024-03-07T01:18:55.652Z,34.60
2024-03-07T01:21:58.568Z,34.13
2024-03-07T01:25:01.762Z,33.47
2024-03-07T01:28:05.477Z,35.90
2024-03-07T01:31:09.381Z,32.15
2024-03-07T01:34:12.186Z,38.08
2024-03-07T01:37:15.540Z,38.03
2024-03-07T01:40:18.380Z,31.47
2024-03-07T01:43:22.785Z,36.97
2024-03-07T01:46:26.097Z,33.15
2024-03-07T01:49:29.482Z,36.50
2024-03-07T01:52:32.437Z,31.65
2024-03-07T01:55:35.677Z,37.57
2024-03-07T01:58:39.083Z,34.88
2024-03-07T02:01:42.145Z,34.65
2024-03-07T02:04:45.875Z,37.13
2024-03-07T02:07:49.211Z,34.03
2024-03-07T02:10:52.730Z,32.97
2024-03-07T02:13:55.880Z,32.35
2024-03-07T02:17:00.337Z,32.83
2024-03-07T02:20:06.363Z,34.40
2024-03-07T02:23:09.846Z,38.92
2024-03-07T02:26:12.730Z,37.30
2024-03-07T02:29:15.950Z,37.53
2024-03-07T02:32:19.011Z,38.72
2024-03-07T02:35:22.349Z,33.42
2024-03-07T02:38:25.560Z,35.90
2024-03-07T02:41:28.622Z,35.92
2024-03-07T02:44:33.208Z,39.35
2024-03-07T02:47:37.651Z,34.53
2024-03-07T02:50:40.810Z,37.55
2024-03-07T02:53:44.310Z,36.97
2024-03-07T02:56:47.746Z,37.42
2024-03-07T02:59:50.977Z,39.78
2024-03-07T03:02:54.438Z,37.88
2024-03-07T03:05:57.900Z,37.00
2024-03-07T03:09:00.994Z,45.53
2024-03-07T03:12:04.300Z,41.97
2024-03-07T03:15:08.549Z,38.80
2024-03-07T03:18:11.788Z,36.10
2024-03-07T03:21:14.563Z,31.83
2024-03-07T03:24:17.743Z,37.60
2024-03-07T03:27:20.379Z,37.70
2024-03-07T03:30:23.701Z,37.20
2024-03-07T03:33:27.490Z,33.47
2024-03-07T03:36:30.936Z,39.67
2024-03-07T03:39:34.910Z,33.20
2024-03-07T03:42:39.318Z,34.65
2024-03-07T03:45:42.130Z,37.78
2024-03-07T03:48:45.595Z,36.92
2024-03-07T03:51:48.948Z,40.25
2024-03-07T03:54:52.130Z,39.77
2024-03-07T03:57:55.011Z,33.22
2024-03-07T04:00:59.841Z,35.47
2024-03-07T04:04:03.075Z,34.25
2024-03-07T04:07:06.278Z,36.40
2024-03-07T04:10:10.953Z,37.07
2024-03-07T04:13:15.071Z,33.78
2024-03-07T04:16:18.362Z,33.78
2024-03-07T04:19:21.871Z,34.78
2024-03-07T04:22:25.072Z,33.30
2024-03-07T04:25:27.889Z,36.37
2024-03-07T04:28:31.198Z,31.92
2024-03-07T04:31:33.972Z,36.20
2024-03-07T04:34:38.297Z,35.65
2024-03-07T04:37:42.199Z,36.60
2024-03-07T04:40:45.753Z,38.70
2024-03-07T04:43:48.552Z,37.28
2024-03-07T04:46:56.562Z,39.13
2024-03-07T04:50:01.786Z,34.72
2024-03-07T04:53:05.146Z,33.13
2024-03-07T04:56:10.489Z,35.60
2024-03-07T04:59:14.695Z,33.25
2024-03-07T05:02:17.692Z,35.72
2024-03-07T05:05:24.680Z,38.88
2024-03-07T05:08:27.973Z,39.13
2024-03-07T05:11:32.458Z,34.45
2024-03-07T05:14:35.544Z,32.72
2024-03-07T05:17:40.529Z,35.17
2024-03-07T05:20:44.163Z,56.83
2024-03-07T05:23:50.526Z,53.25
2024-03-07T05:26:54.531Z,44.33
2024-03-07T05:29:59.803Z,51.92
2024-03-07T05:33:03.468Z,50.42
2024-03-07T05:36:17.582Z,42.07
2024-03-07T05:39:23.230Z,45.70
2024-03-07T05:42:27.247Z,42.83
2024-03-07T05:45:30.160Z,57.58
2024-03-07T05:48:33.962Z,52.65
2024-03-07T05:51:38.521Z,51.87
2024-03-07T05:54:41.845Z,45.60
2024-03-07T05:57:45.772Z,45.90
2024-03-07T06:00:51.133Z,46.67
2024-03-07T06:03:56.091Z,52.17
2024-03-07T06:06:59.852Z,51.67
2024-03-07T06:10:03.065Z,54.58
2024-03-07T06:13:10.831Z,55.35
2024-03-07T06:16:16.661Z,52.92
2024-03-07T06:19:19.665Z,55.50
2024-03-07T06:22:23.931Z,48.37
2024-03-07T06:25:52.515Z,42.30
2024-03-07T06:28:56.249Z,44.47
2024-03-07T06:32:00.162Z,40.42
2024-03-07T06:35:05.984Z,43.15
2024-03-07T06:38:10.652Z,39.78
2024-03-07T06:41:15.412Z,38.80
2024-03-07T06:44:24.921Z,39.60
2024-03-07T06:47:28.298Z,30.52
2024-03-07T06:50:37.603Z,28.07
2024-03-07T06:53:42.524Z,24.60
2024-03-07T06:56:46.174Z,26.58
2024-03-07T06:59:50.691Z,22.23
2024-03-07T07:02:59.367Z,23.05
2024-03-07T07:06:09.374Z,26.40
2024-03-07T07:09:12.878Z,20.33
2024-03-07T07:12:16.558Z,20.45
2024-03-07T07:15:20.184Z,18.50
2024-03-07T07:18:25.208Z,21.08
2024-03-07T07:21:28.889Z,20.80
2024-03-07T07:24:35.889Z,19.62
2024-03-07T07:27:41.350Z,15.05
2024-03-07T07:30:45.993Z,18.45
2024-03-07T07:33:49.308Z,16.62
2024-03-07T07:36:53.551Z,15.47
2024-03-07T07:39:56.344Z,19.48
2024-03-07T07:42:59.478Z,16.95
2024-03-07T07:46:02.604Z,17.12
2024-03-07T07:49:06.574Z,16.05
2024-03-07T07:52:10.113Z,16.23
2024-03-07T07:55:16.170Z,14.40
2024-03-07T07:58:19.511Z,14.90
2024-03-07T08:01:22.886Z,11.65
2024-03-07T08:04:26.557Z,10.10
2024-03-07T08:07:29.911Z,11.90
2024-03-07T08:10:35.443Z,10.38
2024-03-07T08:13:38.750Z,11.70
2024-03-07T08:16:42.186Z,11.95
2024-03-07T08:19:46.433Z,10.83
2024-03-07T08:22:54.146Z,11.32
2024-03-07T08:25:57.248Z,10.50
2024-03-07T08:29:00.561Z,12.63
2024-03-07T08:32:04.257Z,12.18
2024-03-07T08:35:10.693Z,12.67
2024-03-07T08:38:13.930Z,13.02
2024-03-07T08:41:19.704Z,14.57
2024-03-07T08:44:23.089Z,12.60
2024-03-07T08:47:26.875Z,12.48
2024-03-07T08:50:32.106Z,13.07
2024-03-07T08:53:36.286Z,13.62
2024-03-07T08:56:39.423Z,12.05
2024-03-07T08:59:42.628Z,12.18
2024-03-07T09:02:45.680Z,12.00
2024-03-07T09:05:49.235Z,11.37
2024-03-07T09:08:52.973Z,13.02
2024-03-07T09:11:56.551Z,12.05
2024-03-07T09:15:00.147Z,12.00
2024-03-07T09:18:05.470Z,7.70
2024-03-07T09:21:08.637Z,12.73
2024-03-07T09:24:11.871Z,9.73
2024-03-07T09:27:16.547Z,9.27
2024-03-07T09:30:26.097Z,9.95
2024-03-07T09:33:29.689Z,10.50
2024-03-07T09:36:33.004Z,9.47
2024-03-07T09:39:36.533Z,9.60
2024-03-07T09:42:47.342Z,12.25
2024-03-07T09:45:50.931Z,9.50
2024-03-07T09:48:57.809Z,8.73
2024-03-07T09:52:02.297Z,9.27
2024-03-07T09:55:07.377Z,9.43
2024-03-07T09:58:14.456Z,7.85
2024-03-07T10:01:22.433Z,7.95
2024-03-07T10:04:39.102Z,8.05
2024-03-07T10:07:50.978Z,8.70
2024-03-07T10:11:00.073Z,9.95
2024-03-07T10:14:24.592Z,9.23
2024-03-07T10:17:30.019Z,7.50
2024-03-07T10:20:33.196Z,8.23
2024-03-07T10:23:36.910Z,10.47
2024-03-07T10:26:40.076Z,6.45
2024-03-07T10:29:43.211Z,8.15
2024-03-07T10:32:47.595Z,8.52
2024-03-07T10:35:52.139Z,8.50
2024-03-07T10:38:56.737Z,8.10
2024-03-07T10:42:08.739Z,9.93
2024-03-07T10:45:12.322Z,7.37
2024-03-07T10:48:20.369Z,5.75
2024-03-07T10:51:41.033Z,6.00
2024-03-07T10:55:19.886Z,7.63
2024-03-07T10:58:38.811Z,9.05
2024-03-07T11:02:08.337Z,6.07
2024-03-07T11:05:14.168Z,8.10
2024-03-07T11:08:19.988Z,9.82
2024-03-07T11:11:24.894Z,7.40
2024-03-07T11:14:29.424Z,8.60
2024-03-07T11:17:42.302Z,9.38
2024-03-07T11:20:48.987Z,6.30
2024-03-07T11:23:52.439Z,9.57
2024-03-07T11:26:59.754Z,9.30
2024-03-07T11:30:10.818Z,10.35
2024-03-07T11:33:15.794Z,9.43
2024-03-07T11:36:46.678Z,7.37
2024-03-07T11:39:59.606Z,9.40
2024-03-07T11:43:06.285Z,9.70
2024-03-07T11:46:18.690Z,8.38
2024-03-07T11:49:22.165Z,9.23
2024-03-07T11:52:30.983Z,10.35
2024-03-07T11:55:47.446Z,8.48
2024-03-07T11:58:56.073Z,10.53
2024-03-07T12:02:02.864Z,11.60
2024-03-07T12:05:09.195Z,8.73
2024-03-07T12:08:13.378Z,9.27
2024-03-07T12:11:17.712Z,11.43
2024-03-07T12:14:21.086Z,9.17
2024-03-07T12:17:25.211Z,8.95
2024-03-07T12:20:34.961Z,8.63
2024-03-07T12:23:42.186Z,9.25
2024-03-07T12:26:45.276Z,10.23
2024-03-07T12:29:50.138Z,9.67
2024-03-07T12:32:54.049Z,8.63
2024-03-07T12:36:08.213Z,8.85
2024-03-07T12:39:25.884Z,8.90
2024-03-07T12:42:32.765Z,8.00
2024-03-07T12:45:36.335Z,9.33
2024-03-07T12:48:42.594Z,9.90
2024-03-07T12:51:46.131Z,8.43
2024-03-07T12:54:51.986Z,9.70
2024-03-07T12:57:56.042Z,12.37
2024-03-07T13:00:59.845Z,10.20
2024-03-07T13:04:02.675Z,9.95
2024-03-07T13:07:07.676Z,10.68
2024-03-07T13:10:11.492Z,11.43
2024-03-07T13:13:14.870Z,11.70
2024-03-07T13:16:19.195Z,8.77
2024-03-07T13:19:23.313Z,10.20
2024-03-07T13:22:26.363Z,10.13
2024-03-07T13:25:34.544Z,13.35
2024-03-07T13:28:37.436Z,19.45
2024-03-07T13:31:44.386Z,13.60
2024-03-07T13:34:47.969Z,24.50
2024-03-07T13:37:51.982Z,16.30
2024-03-07T13:40:55.014Z,17.87
2024-03-07T13:44:01.441Z,20.37
2024-03-07T13:47:06.897Z,15.67
2024-03-07T13:50:15.891Z,12.63
2024-03-07T13:53:30.878Z,12.73
2024-03-07T13:56:50.021Z,15.93
2024-03-07T14:00:24.016Z,10.88
2024-03-07T14:04:12.476Z,28.03
2024-03-07T14:07:52.874Z,19.40
2024-03-07T14:11:18.318Z,14.35
2024-03-07T14:14:57.038Z,19.02
2024-03-07T14:18:11.424Z,15.32
2024-03-07T14:21:38.935Z,15.30
2024-03-07T14:25:19.577Z,21.20
2024-03-07T14:28:47.068Z,17.67
2024-03-07T14:31:52.334Z,12.02
2024-03-07T14:35:23.712Z,13.53
2024-03-07T14:39:06.050Z,14.40
2024-03-07T14:42:13.640Z,18.52
2024-03-07T14:45:21.931Z,16.42
2024-03-07T14:48:25.135Z,16.42
2024-03-07T14:51:28.926Z,14.30
2024-03-07T14:54:32.437Z,14.57
2024-03-07T14:57:36.346Z,13.68
2024-03-07T15:00:55.184Z,15.90
2024-03-07T15:04:08.556Z,17.25
2024-03-07T15:07:11.844Z,15.70
2024-03-07T15:10:31.948Z,16.50
2024-03-07T15:13:36.061Z,13.65
2024-03-07T15:16:41.782Z,17.50
2024-03-07T15:19:44.990Z,14.90
2024-03-07T15:22:48.307Z,14.90
2024-03-07T15:25:51.606Z,14.53
2024-03-07T15:28:58.587Z,15.43
2024-03-07T15:32:04.232Z,29.20
2024-03-07T15:35:12.781Z,30.88
2024-03-07T15:38:18.521Z,23.47
2024-03-07T15:41:23.589Z,27.63
2024-03-07T15:44:27.253Z,16.50
2024-03-07T15:47:30.781Z,35.42
2024-03-07T15:50:34.199Z,50.58
2024-03-07T15:53:38.116Z,22.63
2024-03-07T15:56:41.199Z,25.73
2024-03-07T15:59:45.584Z,30.10
2024-03-07T16:02:49.008Z,29.00
2024-03-07T16:05:55.887Z,23.15
2024-03-07T16:08:59.114Z,20.47
2024-03-07T16:12:03.310Z,19.40
2024-03-07T16:15:07.005Z,21.52
2024-03-07T16:18:16.793Z,21.60
2024-03-07T16:21:20.309Z,18.67
2024-03-07T16:24:23.823Z,19.13
2024-03-07T16:27:26.587Z,18.80
2024-03-07T16:30:33.702Z,17.87
2024-03-07T16:33:37.238Z,17.08
2024-03-07T16:36:40.700Z,16.37
2024-03-07T16:39:44.844Z,16.20
2024-03-07T16:42:52.541Z,17.43
2024-03-07T16:45:56.039Z,15.88
2024-03-07T16:48:59.599Z,16.30
2024-03-07T16:52:02.527Z,16.23
2024-03-07T16:55:11.853Z,16.90
2024-03-07T16:58:16.058Z,17.87
2024-03-07T17:01:19.756Z,21.90
2024-03-07T17:04:22.674Z,25.12
2024-03-07T17:07:25.975Z,21.08
2024-03-07T17:10:36.340Z,19.20
2024-03-07T17:13:42.077Z,17.65
2024-03-07T17:16:45.030Z,17.50
2024-03-07T17:19:48.909Z,17.12
2024-03-07T17:22:56.762Z,16.20
2024-03-07T17:26:00.173Z,15.90
2024-03-07T17:29:02.992Z,18.53
2024-03-07T17:32:08.296Z,16.62
2024-03-07T17:35:12.500Z,16.33
2024-03-07T17:38:16.074Z,14.45
2024-03-07T17:41:19.438Z,15.43
2024-03-07T17:44:23.392Z,14.20
2024-03-07T17:47:30.116Z,13.45
2024-03-07T17:50:34.340Z,15.40
2024-03-07T17:53:38.842Z,17.45
2024-03-07T17:56:45.181Z,15.30
2024-03-07T17:59:49.621Z,14.43
2024-03-07T18:02:55.641Z,14.73
2024-03-07T18:05:59.957Z,14.20
2024-03-07T18:09:12.862Z,19.42
2024-03-07T18:12:16.415Z,19.50
2024-03-07T18:15:23.353Z,19.60
2024-03-07T18:18:30.319Z,23.52
2024-03-07T18:21:33.815Z,24.75
2024-03-07T18:24:36.943Z,30.70
2024-03-07T18:27:39.721Z,33.13
2024-03-07T18:30:43.851Z,31.23
2024-03-07T18:33:47.510Z,35.20
2024-03-07T18:36:55.480Z,53.80
2024-03-07T18:40:00.268Z,11.52
2024-03-07T18:43:13.464Z,30.77
2024-03-07T18:46:17.215Z,46.47
2024-03-07T18:49:24.188Z,14.65
2024-03-07T18:52:29.130Z,10.63
2024-03-07T18:55:32.858Z,9.32
2024-03-07T18:58:36.132Z,12.97
2024-03-07T19:01:39.890Z,11.93
2024-03-07T19:04:45.537Z,11.15
2024-03-07T19:07:50.214Z,10.02
2024-03-07T19:10:59.946Z,10.00
2024-03-07T19:14:03.893Z,13.17
2024-03-07T19:17:10.040Z,12.60
2024-03-07T19:20:19.684Z,12.37
2024-03-07T19:23:23.507Z,11.65
2024-03-07T19:26:27.659Z,16.17
2024-03-07T19:29:32.306Z,18.03
2024-03-07T19:32:36.442Z,16.25
2024-03-07T19:35:49.625Z,17.12
2024-03-07T19:38:54.344Z,15.60
2024-03-07T19:42:05.420Z,13.82
2024-03-07T19:45:15.437Z,13.93
2024-03-07T19:48:18.972Z,12.13
2024-03-07T19:51:26.430Z,13.40
2024-03-07T19:54:29.221Z,11.98
2024-03-07T19:57:34.064Z,11.05
2024-03-07T20:00:37.132Z,10.43
2024-03-07T20:03:40.663Z,11.70
2024-03-07T20:06:46.825Z,9.52
2024-03-07T20:09:50.549Z,11.85
2024-03-07T20:12:53.929Z,10.82
2024-03-07T20:16:01.983Z,9.30
2024-03-07T20:19:05.931Z,11.70
2024-03-07T20:22:09.309Z,11.95
2024-03-07T20:25:17.344Z,12.65
2024-03-07T20:28:21.590Z,9.38
2024-03-07T20:31:25.091Z,10.77
2024-03-07T20:34:28.608Z,10.25
2024-03-07T20:37:31.544Z,11.95
2024-03-07T20:40:35.773Z,12.90
2024-03-07T20:43:38.585Z,13.20
2024-03-07T20:46:42.646Z,12.70
2024-03-07T20:49:46.640Z,12.35
2024-03-07T20:52:56.196Z,10.48
2024-03-07T20:56:01.634Z,13.05
2024-03-07T20:59:08.041Z,12.37
2024-03-07T21:02:12.800Z,9.90
2024-03-07T21:05:17.149Z,9.18
2024-03-07T21:08:20.880Z,9.45
2024-03-07T21:11:29.612Z,9.07
2024-03-07T21:14:33.439Z,11.10
2024-03-07T21:17:40.231Z,10.03
2024-03-07T21:20:44.109Z,11.12
2024-03-07T21:23:47.995Z,9.77
2024-03-07T21:26:52.742Z,9.05
2024-03-07T21:29:59.238Z,8.85
2024-03-07T21:33:03.358Z,10.13
2024-03-07T21:36:09.908Z,9.27
2024-03-07T21:39:14.290Z,10.60
2024-03-07T21:42:19.940Z,9.05
2024-03-07T21:45:23.287Z,7.95
2024-03-07T21:48:26.723Z,7.77
2024-03-07T21:51:32.188Z,8.70
2024-03-07T21:54:36.383Z,11.18
2024-03-07T21:57:42.403Z,9.93
2024-03-07T22:00:47.834Z,9.05
2024-03-07T22:03:51.028Z,8.57
2024-03-07T22:06:56.938Z,10.32
2024-03-07T22:10:00.604Z,11.02
2024-03-07T22:13:03.562Z,10.65
2024-03-07T22:16:07.727Z,9.00
2024-03-07T22:19:10.591Z,8.90
2024-03-07T22:22:13.748Z,8.82
2024-03-07T22:25:19.075Z,8.40
2024-03-07T22:28:22.256Z,8.23
2024-03-07T22:31:25.173Z,7.37
2024-03-07T22:34:28.388Z,8.50
2024-03-07T22:37:31.247Z,9.85
2024-03-07T22:40:34.732Z,13.07
2024-03-07T22:43:38.256Z,9.43
2024-03-07T22:46:41.844Z,7.70
2024-03-07T22:49:46.003Z,7.33
2024-03-07T22:52:52.016Z,9.50
2024-03-07T22:55:54.937Z,7.55
2024-03-07T22:59:00.079Z,8.07
2024-03-07T23:02:03.826Z,8.32
2024-03-07T23:05:10.874Z,8.20
2024-03-07T23:08:15.005Z,8.38
2024-03-07T23:11:20.339Z,7.90
2024-03-07T23:14:25.914Z,9.02
2024-03-07T23:17:29.018Z,8.75
2024-03-07T23:20:32.269Z,9.40
2024-03-07T23:23:35.584Z,8.65
2024-03-07T23:26:41.964Z,9.77
2024-03-07T23:29:45.132Z,7.75
2024-03-07T23:32:49.128Z,7.50
2024-03-07T23:35:52.699Z,8.47
2024-03-07T23:38:58.643Z,7.57
2024-03-07T23:42:02.716Z,8.00
2024-03-07T23:45:06.613Z,8.00
2024-03-07T23:48:10.480Z,8.27
2024-03-07T23:51:13.387Z,8.90
2024-03-07T23:54:19.001Z,7.95
2024-03-07T23:57:22.434Z,7.75
